sensor_id;sensor_type;location;lat;lon;timestamp;P1;durP1;ratioP1;P2;durP2;ratioP2
63046;SDS011;62025;39.238;9.126;2023-06-22T00:00:57;9.02;;;3.50;;
63046;SDS011;62025;39.238;9.126;2023-06-22T00:03:24;7.63;;;4.13;;
63046;SDS011;62025;39.238;9.126;2023-06-22T00:05:51;6.70;;;3.42;;
63046;SDS011;62025;39.238;9.126;2023-06-22T00:08:18;12.10;;;3.58;;
63046;SDS011;62025;39.238;9.126;2023-06-22T00:10:45;8.00;;;3.47;;
63046;SDS011;62025;39.238;9.126;2023-06-22T00:13:12;11.55;;;3.92;;
63046;SDS011;62025;39.238;9.126;2023-06-22T00:15:39;8.53;;;3.50;;
63046;SDS011;62025;39.238;9.126;2023-06-22T00:18:07;6.25;;;3.60;;
63046;SDS011;62025;39.238;9.126;2023-06-22T00:20:34;6.75;;;3.20;;
63046;SDS011;62025;39.238;9.126;2023-06-22T00:23:02;10.93;;;3.60;;
63046;SDS011;62025;39.238;9.126;2023-06-22T00:25:34;7.25;;;3.20;;
63046;SDS011;62025;39.238;9.126;2023-06-22T00:28:01;10.75;;;3.50;;
63046;SDS011;62025;39.238;9.126;2023-06-22T00:30:29;6.53;;;3.38;;
63046;SDS011;62025;39.238;9.126;2023-06-22T00:35:24;9.07;;;3.45;;
63046;SDS011;62025;39.238;9.126;2023-06-22T00:37:55;8.52;;;3.33;;
63046;SDS011;62025;39.238;9.126;2023-06-22T00:40:33;7.75;;;3.45;;
63046;SDS011;62025;39.238;9.126;2023-06-22T00:42:59;9.20;;;3.58;;
63046;SDS011;62025;39.238;9.126;2023-06-22T00:45:25;6.05;;;3.47;;
63046;SDS011;62025;39.238;9.126;2023-06-22T00:47:53;7.57;;;3.47;;
63046;SDS011;62025;39.238;9.126;2023-06-22T00:50:22;7.32;;;3.47;;
63046;SDS011;62025;39.238;9.126;2023-06-22T00:52:55;9.02;;;3.53;;
63046;SDS011;62025;39.238;9.126;2023-06-22T00:55:23;7.85;;;3.72;;
63046;SDS011;62025;39.238;9.126;2023-06-22T00:57:51;8.52;;;3.42;;
63046;SDS011;62025;39.238;9.126;2023-06-22T01:00:24;8.25;;;3.90;;
63046;SDS011;62025;39.238;9.126;2023-06-22T01:02:52;10.05;;;3.85;;
63046;SDS011;62025;39.238;9.126;2023-06-22T01:05:19;8.15;;;3.50;;
63046;SDS011;62025;39.238;9.126;2023-06-22T01:10:49;10.27;;;3.25;;
63046;SDS011;62025;39.238;9.126;2023-06-22T01:16:07;11.55;;;3.63;;
63046;SDS011;62025;39.238;9.126;2023-06-22T01:19:49;9.52;;;4.00;;
63046;SDS011;62025;39.238;9.126;2023-06-22T01:22:06;9.30;;;3.47;;
63046;SDS011;62025;39.238;9.126;2023-06-22T01:30:43;8.80;;;3.53;;
63046;SDS011;62025;39.238;9.126;2023-06-22T01:33:12;9.93;;;3.95;;
63046;SDS011;62025;39.238;9.126;2023-06-22T01:35:39;9.90;;;3.78;;
63046;SDS011;62025;39.238;9.126;2023-06-22T01:38:06;7.78;;;3.75;;
63046;SDS011;62025;39.238;9.126;2023-06-22T01:40:33;9.20;;;3.80;;
63046;SDS011;62025;39.238;9.126;2023-06-22T01:43:00;13.43;;;3.67;;
63046;SDS011;62025;39.238;9.126;2023-06-22T01:45:27;10.88;;;4.10;;
63046;SDS011;62025;39.238;9.126;2023-06-22T01:47:53;10.80;;;4.25;;
63046;SDS011;62025;39.238;9.126;2023-06-22T01:50:20;13.35;;;4.25;;
63046;SDS011;62025;39.238;9.126;2023-06-22T01:52:48;6.80;;;4.78;;
63046;SDS011;62025;39.238;9.126;2023-06-22T01:55:14;9.32;;;4.20;;
63046;SDS011;62025;39.238;9.126;2023-06-22T01:57:40;12.80;;;4.07;;
63046;SDS011;62025;39.238;9.126;2023-06-22T02:00:07;9.80;;;3.97;;
63046;SDS011;62025;39.238;9.126;2023-06-22T02:02:43;8.65;;;3.90;;
63046;SDS011;62025;39.238;9.126;2023-06-22T02:05:21;8.52;;;3.80;;
63046;SDS011;62025;39.238;9.126;2023-06-22T02:07:58;9.43;;;3.78;;
63046;SDS011;62025;39.238;9.126;2023-06-22T02:10:33;8.45;;;4.35;;
63046;SDS011;62025;39.238;9.126;2023-06-22T02:13:02;9.15;;;3.90;;
63046;SDS011;62025;39.238;9.126;2023-06-22T02:15:32;7.47;;;3.53;;
63046;SDS011;62025;39.238;9.126;2023-06-22T02:17:58;8.55;;;3.97;;
63046;SDS011;62025;39.238;9.126;2023-06-22T02:20:25;9.93;;;4.47;;
63046;SDS011;62025;39.238;9.126;2023-06-22T02:22:51;7.95;;;3.58;;
63046;SDS011;62025;39.238;9.126;2023-06-22T02:25:17;10.70;;;3.85;;
63046;SDS011;62025;39.238;9.126;2023-06-22T02:27:45;7.25;;;3.42;;
63046;SDS011;62025;39.238;9.126;2023-06-22T02:30:11;9.30;;;3.80;;
63046;SDS011;62025;39.238;9.126;2023-06-22T02:32:41;9.65;;;3.95;;
63046;SDS011;62025;39.238;9.126;2023-06-22T02:35:11;9.68;;;3.70;;
63046;SDS011;62025;39.238;9.126;2023-06-22T02:37:37;7.63;;;3.45;;
63046;SDS011;62025;39.238;9.126;2023-06-22T02:40:09;9.43;;;3.50;;
63046;SDS011;62025;39.238;9.126;2023-06-22T02:42:36;7.28;;;3.17;;
63046;SDS011;62025;39.238;9.126;2023-06-22T02:45:03;9.18;;;3.40;;
63046;SDS011;62025;39.238;9.126;2023-06-22T02:47:29;11.10;;;3.33;;
63046;SDS011;62025;39.238;9.126;2023-06-22T02:49:56;9.80;;;3.50;;
63046;SDS011;62025;39.238;9.126;2023-06-22T02:52:23;6.85;;;3.85;;
63046;SDS011;62025;39.238;9.126;2023-06-22T02:54:49;6.57;;;3.28;;
63046;SDS011;62025;39.238;9.126;2023-06-22T02:57:15;12.57;;;3.35;;
63046;SDS011;62025;39.238;9.126;2023-06-22T02:59:42;6.72;;;3.17;;
63046;SDS011;62025;39.238;9.126;2023-06-22T03:02:10;11.48;;;3.45;;
63046;SDS011;62025;39.238;9.126;2023-06-22T03:04:37;10.60;;;3.15;;
63046;SDS011;62025;39.238;9.126;2023-06-22T03:07:03;12.57;;;3.55;;
63046;SDS011;62025;39.238;9.126;2023-06-22T03:09:31;6.50;;;3.38;;
63046;SDS011;62025;39.238;9.126;2023-06-22T03:11:57;6.90;;;3.47;;
63046;SDS011;62025;39.238;9.126;2023-06-22T03:14:28;14.02;;;3.53;;
63046;SDS011;62025;39.238;9.126;2023-06-22T03:16:54;10.55;;;3.17;;
63046;SDS011;62025;39.238;9.126;2023-06-22T03:19:26;6.35;;;3.03;;
63046;SDS011;62025;39.238;9.126;2023-06-22T03:21:54;12.02;;;3.45;;
63046;SDS011;62025;39.238;9.126;2023-06-22T03:24:20;10.65;;;3.28;;
63046;SDS011;62025;39.238;9.126;2023-06-22T03:26:46;10.57;;;3.22;;
63046;SDS011;62025;39.238;9.126;2023-06-22T03:29:12;9.15;;;3.65;;
63046;SDS011;62025;39.238;9.126;2023-06-22T03:31:39;11.18;;;3.70;;
63046;SDS011;62025;39.238;9.126;2023-06-22T03:34:05;9.65;;;3.28;;
63046;SDS011;62025;39.238;9.126;2023-06-22T03:36:31;6.82;;;3.40;;
63046;SDS011;62025;39.238;9.126;2023-06-22T03:38:57;10.30;;;3.60;;
63046;SDS011;62025;39.238;9.126;2023-06-22T03:41:23;11.27;;;3.90;;
63046;SDS011;62025;39.238;9.126;2023-06-22T03:43:50;9.30;;;3.47;;
63046;SDS011;62025;39.238;9.126;2023-06-22T03:46:16;6.93;;;3.40;;
63046;SDS011;62025;39.238;9.126;2023-06-22T03:48:42;7.70;;;3.63;;
63046;SDS011;62025;39.238;9.126;2023-06-22T03:51:09;11.30;;;3.80;;
63046;SDS011;62025;39.238;9.126;2023-06-22T03:53:34;8.43;;;3.47;;
63046;SDS011;62025;39.238;9.126;2023-06-22T03:56:00;8.55;;;3.20;;
63046;SDS011;62025;39.238;9.126;2023-06-22T03:58:26;9.85;;;3.67;;
63046;SDS011;62025;39.238;9.126;2023-06-22T04:00:58;11.02;;;3.72;;
63046;SDS011;62025;39.238;9.126;2023-06-22T04:03:25;8.00;;;3.60;;
63046;SDS011;62025;39.238;9.126;2023-06-22T04:05:51;8.65;;;3.70;;
63046;SDS011;62025;39.238;9.126;2023-06-22T04:08:17;12.10;;;3.80;;
63046;SDS011;62025;39.238;9.126;2023-06-22T04:10:43;11.25;;;4.00;;
63046;SDS011;62025;39.238;9.126;2023-06-22T04:13:10;17.52;;;4.03;;
63046;SDS011;62025;39.238;9.126;2023-06-22T04:15:36;8.60;;;3.28;;
63046;SDS011;62025;39.238;9.126;2023-06-22T04:18:02;8.93;;;4.05;;
63046;SDS011;62025;39.238;9.126;2023-06-22T04:20:28;11.05;;;3.85;;
63046;SDS011;62025;39.238;9.126;2023-06-22T04:22:54;9.30;;;3.28;;
63046;SDS011;62025;39.238;9.126;2023-06-22T04:25:20;10.38;;;3.78;;
63046;SDS011;62025;39.238;9.126;2023-06-22T04:27:47;8.82;;;3.58;;
63046;SDS011;62025;39.238;9.126;2023-06-22T04:30:13;9.88;;;3.50;;
63046;SDS011;62025;39.238;9.126;2023-06-22T04:32:41;7.35;;;3.50;;
63046;SDS011;62025;39.238;9.126;2023-06-22T04:35:08;10.68;;;3.53;;
63046;SDS011;62025;39.238;9.126;2023-06-22T04:37:35;9.70;;;3.75;;
63046;SDS011;62025;39.238;9.126;2023-06-22T04:40:01;6.32;;;3.47;;
63046;SDS011;62025;39.238;9.126;2023-06-22T04:42:29;7.32;;;3.40;;
63046;SDS011;62025;39.238;9.126;2023-06-22T04:44:55;13.70;;;3.42;;
63046;SDS011;62025;39.238;9.126;2023-06-22T04:47:21;14.55;;;3.70;;
63046;SDS011;62025;39.238;9.126;2023-06-22T04:49:47;10.35;;;3.80;;
63046;SDS011;62025;39.238;9.126;2023-06-22T04:52:13;10.52;;;3.45;;
63046;SDS011;62025;39.238;9.126;2023-06-22T04:54:43;11.00;;;3.65;;
63046;SDS011;62025;39.238;9.126;2023-06-22T04:57:12;13.73;;;3.55;;
63046;SDS011;62025;39.238;9.126;2023-06-22T04:59:39;10.43;;;3.65;;
63046;SDS011;62025;39.238;9.126;2023-06-22T05:02:07;12.00;;;4.45;;
63046;SDS011;62025;39.238;9.126;2023-06-22T05:04:33;7.53;;;4.15;;
63046;SDS011;62025;39.238;9.126;2023-06-22T05:07:03;11.95;;;3.45;;
63046;SDS011;62025;39.238;9.126;2023-06-22T05:09:30;11.32;;;3.70;;
63046;SDS011;62025;39.238;9.126;2023-06-22T05:14:27;10.10;;;3.60;;
63046;SDS011;62025;39.238;9.126;2023-06-22T05:16:54;9.30;;;4.30;;
63046;SDS011;62025;39.238;9.126;2023-06-22T05:19:23;10.75;;;3.95;;
63046;SDS011;62025;39.238;9.126;2023-06-22T05:21:56;9.35;;;3.50;;
63046;SDS011;62025;39.238;9.126;2023-06-22T05:24:22;7.53;;;3.75;;
63046;SDS011;62025;39.238;9.126;2023-06-22T05:26:48;7.95;;;3.50;;
63046;SDS011;62025;39.238;9.126;2023-06-22T05:29:14;8.45;;;3.60;;
63046;SDS011;62025;39.238;9.126;2023-06-22T05:31:40;10.00;;;3.60;;
63046;SDS011;62025;39.238;9.126;2023-06-22T05:34:06;10.82;;;3.92;;
63046;SDS011;62025;39.238;9.126;2023-06-22T05:36:32;9.48;;;3.72;;
63046;SDS011;62025;39.238;9.126;2023-06-22T05:38:58;10.07;;;3.88;;
63046;SDS011;62025;39.238;9.126;2023-06-22T05:41:24;9.20;;;3.60;;
63046;SDS011;62025;39.238;9.126;2023-06-22T05:43:50;10.48;;;3.60;;
63046;SDS011;62025;39.238;9.126;2023-06-22T05:46:16;6.53;;;3.60;;
63046;SDS011;62025;39.238;9.126;2023-06-22T05:48:43;6.75;;;3.35;;
63046;SDS011;62025;39.238;9.126;2023-06-22T05:51:09;9.88;;;4.22;;
63046;SDS011;62025;39.238;9.126;2023-06-22T05:53:35;7.15;;;3.67;;
63046;SDS011;62025;39.238;9.126;2023-06-22T05:56:01;8.05;;;3.72;;
63046;SDS011;62025;39.238;9.126;2023-06-22T05:58:27;11.18;;;3.80;;
63046;SDS011;62025;39.238;9.126;2023-06-22T06:00:53;8.18;;;3.65;;
63046;SDS011;62025;39.238;9.126;2023-06-22T06:03:20;7.95;;;3.38;;
63046;SDS011;62025;39.238;9.126;2023-06-22T06:05:45;9.13;;;3.30;;
63046;SDS011;62025;39.238;9.126;2023-06-22T06:08:12;11.25;;;3.60;;
63046;SDS011;62025;39.238;9.126;2023-06-22T06:10:38;7.53;;;3.45;;
63046;SDS011;62025;39.238;9.126;2023-06-22T06:13:04;6.85;;;3.75;;
63046;SDS011;62025;39.238;9.126;2023-06-22T06:15:30;9.40;;;3.38;;
63046;SDS011;62025;39.238;9.126;2023-06-22T06:17:58;8.57;;;4.03;;
63046;SDS011;62025;39.238;9.126;2023-06-22T06:20:25;10.63;;;3.60;;
63046;SDS011;62025;39.238;9.126;2023-06-22T06:22:53;6.60;;;3.40;;
63046;SDS011;62025;39.238;9.126;2023-06-22T06:25:19;11.02;;;3.70;;
63046;SDS011;62025;39.238;9.126;2023-06-22T06:27:45;9.43;;;3.60;;
63046;SDS011;62025;39.238;9.126;2023-06-22T06:30:12;9.25;;;3.78;;
63046;SDS011;62025;39.238;9.126;2023-06-22T06:32:40;7.80;;;3.88;;
63046;SDS011;62025;39.238;9.126;2023-06-22T06:35:08;8.47;;;3.60;;
63046;SDS011;62025;39.238;9.126;2023-06-22T06:37:35;10.37;;;3.43;;
63046;SDS011;62025;39.238;9.126;2023-06-22T06:40:04;6.25;;;3.63;;
63046;SDS011;62025;39.238;9.126;2023-06-22T06:42:39;8.00;;;3.50;;
63046;SDS011;62025;39.238;9.126;2023-06-22T06:45:10;8.68;;;3.55;;
63046;SDS011;62025;39.238;9.126;2023-06-22T06:47:48;11.88;;;3.60;;
63046;SDS011;62025;39.238;9.126;2023-06-22T06:52:42;11.52;;;3.80;;
63046;SDS011;62025;39.238;9.126;2023-06-22T06:55:08;12.93;;;3.78;;
63046;SDS011;62025;39.238;9.126;2023-06-22T06:57:38;10.38;;;4.00;;
63046;SDS011;62025;39.238;9.126;2023-06-22T07:00:08;8.57;;;3.60;;
63046;SDS011;62025;39.238;9.126;2023-06-22T07:02:39;8.65;;;3.70;;
63046;SDS011;62025;39.238;9.126;2023-06-22T07:05:07;8.93;;;3.58;;
63046;SDS011;62025;39.238;9.126;2023-06-22T07:07:34;11.47;;;3.73;;
63046;SDS011;62025;39.238;9.126;2023-06-22T07:10:00;8.40;;;3.65;;
63046;SDS011;62025;39.238;9.126;2023-06-22T07:12:26;7.07;;;3.28;;
63046;SDS011;62025;39.238;9.126;2023-06-22T07:14:52;10.68;;;3.40;;
63046;SDS011;62025;39.238;9.126;2023-06-22T07:17:18;11.45;;;3.60;;
63046;SDS011;62025;39.238;9.126;2023-06-22T07:19:45;9.82;;;3.42;;
63046;SDS011;62025;39.238;9.126;2023-06-22T07:22:11;7.25;;;3.60;;
63046;SDS011;62025;39.238;9.126;2023-06-22T07:24:37;8.10;;;3.42;;
63046;SDS011;62025;39.238;9.126;2023-06-22T07:27:03;12.48;;;3.50;;
63046;SDS011;62025;39.238;9.126;2023-06-22T07:29:31;10.45;;;3.67;;
63046;SDS011;62025;39.238;9.126;2023-06-22T07:31:58;12.52;;;3.80;;
63046;SDS011;62025;39.238;9.126;2023-06-22T07:34:26;6.78;;;3.30;;
63046;SDS011;62025;39.238;9.126;2023-06-22T07:36:52;11.43;;;4.13;;
63046;SDS011;62025;39.238;9.126;2023-06-22T07:39:18;9.52;;;3.53;;
63046;SDS011;62025;39.238;9.126;2023-06-22T07:41:44;10.38;;;3.58;;
63046;SDS011;62025;39.238;9.126;2023-06-22T07:44:10;9.60;;;3.55;;
63046;SDS011;62025;39.238;9.126;2023-06-22T07:46:36;9.10;;;3.65;;
63046;SDS011;62025;39.238;9.126;2023-06-22T07:49:02;11.18;;;3.70;;
63046;SDS011;62025;39.238;9.126;2023-06-22T07:51:28;6.97;;;3.47;;
63046;SDS011;62025;39.238;9.126;2023-06-22T07:53:54;6.68;;;3.20;;
63046;SDS011;62025;39.238;9.126;2023-06-22T07:56:20;8.43;;;3.72;;
63046;SDS011;62025;39.238;9.126;2023-06-22T07:58:47;9.73;;;3.70;;
63046;SDS011;62025;39.238;9.126;2023-06-22T08:01:16;7.10;;;3.85;;
63046;SDS011;62025;39.238;9.126;2023-06-22T08:03:44;8.00;;;3.78;;
63046;SDS011;62025;39.238;9.126;2023-06-22T08:06:10;14.32;;;4.20;;
63046;SDS011;62025;39.238;9.126;2023-06-22T08:08:36;13.52;;;3.70;;
63046;SDS011;62025;39.238;9.126;2023-06-22T08:11:02;10.88;;;3.83;;
63046;SDS011;62025;39.238;9.126;2023-06-22T08:13:28;16.27;;;4.03;;
63046;SDS011;62025;39.238;9.126;2023-06-22T08:15:54;7.07;;;3.97;;
63046;SDS011;62025;39.238;9.126;2023-06-22T08:18:20;6.43;;;3.38;;
63046;SDS011;62025;39.238;9.126;2023-06-22T08:20:46;14.73;;;3.65;;
63046;SDS011;62025;39.238;9.126;2023-06-22T08:23:12;6.78;;;3.67;;
63046;SDS011;62025;39.238;9.126;2023-06-22T08:25:38;8.52;;;3.90;;
63046;SDS011;62025;39.238;9.126;2023-06-22T08:28:04;8.60;;;4.00;;
63046;SDS011;62025;39.238;9.126;2023-06-22T08:30:30;12.52;;;3.58;;
63046;SDS011;62025;39.238;9.126;2023-06-22T08:32:56;8.73;;;3.58;;
63046;SDS011;62025;39.238;9.126;2023-06-22T08:35:23;9.00;;;3.88;;
63046;SDS011;62025;39.238;9.126;2023-06-22T08:37:49;6.90;;;3.80;;
63046;SDS011;62025;39.238;9.126;2023-06-22T08:40:20;11.48;;;3.67;;
63046;SDS011;62025;39.238;9.126;2023-06-22T08:42:47;9.77;;;4.15;;
63046;SDS011;62025;39.238;9.126;2023-06-22T08:45:13;7.75;;;3.72;;
63046;SDS011;62025;39.238;9.126;2023-06-22T08:47:41;10.88;;;3.90;;
63046;SDS011;62025;39.238;9.126;2023-06-22T08:50:10;9.43;;;3.92;;
63046;SDS011;62025;39.238;9.126;2023-06-22T08:52:37;8.57;;;3.88;;
63046;SDS011;62025;39.238;9.126;2023-06-22T08:55:06;7.30;;;3.60;;
63046;SDS011;62025;39.238;9.126;2023-06-22T08:57:34;6.97;;;3.70;;
63046;SDS011;62025;39.238;9.126;2023-06-22T09:00:03;8.38;;;3.90;;
63046;SDS011;62025;39.238;9.126;2023-06-22T09:02:42;7.18;;;3.72;;
63046;SDS011;62025;39.238;9.126;2023-06-22T09:05:09;9.23;;;3.70;;
63046;SDS011;62025;39.238;9.126;2023-06-22T09:07:35;8.32;;;3.90;;
63046;SDS011;62025;39.238;9.126;2023-06-22T09:10:01;10.40;;;3.80;;
63046;SDS011;62025;39.238;9.126;2023-06-22T09:12:29;6.95;;;3.72;;
63046;SDS011;62025;39.238;9.126;2023-06-22T09:14:56;7.07;;;3.83;;
63046;SDS011;62025;39.238;9.126;2023-06-22T09:17:22;9.13;;;4.05;;
63046;SDS011;62025;39.238;9.126;2023-06-22T09:19:48;7.95;;;3.90;;
63046;SDS011;62025;39.238;9.126;2023-06-22T09:22:14;9.15;;;4.00;;
63046;SDS011;62025;39.238;9.126;2023-06-22T09:24:40;10.52;;;4.00;;
63046;SDS011;62025;39.238;9.126;2023-06-22T09:27:06;7.25;;;4.10;;
63046;SDS011;62025;39.238;9.126;2023-06-22T09:29:32;14.35;;;4.70;;
63046;SDS011;62025;39.238;9.126;2023-06-22T09:34:51;8.02;;;4.05;;
63046;SDS011;62025;39.238;9.126;2023-06-22T09:37:18;10.20;;;4.32;;
63046;SDS011;62025;39.238;9.126;2023-06-22T09:39:44;9.60;;;4.07;;
63046;SDS011;62025;39.238;9.126;2023-06-22T09:42:10;5.30;;;4.18;;
63046;SDS011;62025;39.238;9.126;2023-06-22T09:44:36;8.95;;;4.10;;
63046;SDS011;62025;39.238;9.126;2023-06-22T09:47:02;8.02;;;4.40;;
63046;SDS011;62025;39.238;9.126;2023-06-22T09:49:29;7.50;;;4.32;;
63046;SDS011;62025;39.238;9.126;2023-06-22T09:51:55;9.65;;;4.65;;
63046;SDS011;62025;39.238;9.126;2023-06-22T09:54:21;7.03;;;3.92;;
63046;SDS011;62025;39.238;9.126;2023-06-22T09:56:48;7.95;;;4.50;;
63046;SDS011;62025;39.238;9.126;2023-06-22T09:59:14;7.85;;;3.90;;
63046;SDS011;62025;39.238;9.126;2023-06-22T10:01:40;9.30;;;4.38;;
63046;SDS011;62025;39.238;9.126;2023-06-22T10:04:06;11.40;;;4.13;;
63046;SDS011;62025;39.238;9.126;2023-06-22T10:06:32;8.68;;;4.38;;
63046;SDS011;62025;39.238;9.126;2023-06-22T10:08:58;13.10;;;4.40;;
63046;SDS011;62025;39.238;9.126;2023-06-22T10:11:24;9.65;;;4.57;;
63046;SDS011;62025;39.238;9.126;2023-06-22T10:13:54;8.07;;;4.55;;
63046;SDS011;62025;39.238;9.126;2023-06-22T10:16:20;10.30;;;4.50;;
63046;SDS011;62025;39.238;9.126;2023-06-22T10:18:46;11.73;;;4.68;;
63046;SDS011;62025;39.238;9.126;2023-06-22T10:21:12;6.85;;;4.30;;
63046;SDS011;62025;39.238;9.126;2023-06-22T10:23:38;7.28;;;4.28;;
63046;SDS011;62025;39.238;9.126;2023-06-22T10:26:04;9.05;;;4.10;;
63046;SDS011;62025;39.238;9.126;2023-06-22T10:28:30;9.77;;;4.30;;
63046;SDS011;62025;39.238;9.126;2023-06-22T10:30:56;10.93;;;4.40;;
63046;SDS011;62025;39.238;9.126;2023-06-22T10:33:22;8.75;;;4.70;;
63046;SDS011;62025;39.238;9.126;2023-06-22T10:35:48;9.00;;;4.00;;
63046;SDS011;62025;39.238;9.126;2023-06-22T10:38:14;10.65;;;4.45;;
63046;SDS011;62025;39.238;9.126;2023-06-22T10:40:40;8.63;;;4.60;;
63046;SDS011;62025;39.238;9.126;2023-06-22T10:43:06;7.57;;;4.25;;
63046;SDS011;62025;39.238;9.126;2023-06-22T10:45:32;10.77;;;4.55;;
63046;SDS011;62025;39.238;9.126;2023-06-22T10:47:58;6.60;;;4.88;;
63046;SDS011;62025;39.238;9.126;2023-06-22T10:50:24;9.15;;;4.47;;
63046;SDS011;62025;39.238;9.126;2023-06-22T10:52:51;11.93;;;4.80;;
63046;SDS011;62025;39.238;9.126;2023-06-22T10:55:17;9.85;;;4.75;;
63046;SDS011;62025;39.238;9.126;2023-06-22T10:57:43;10.27;;;4.70;;
63046;SDS011;62025;39.238;9.126;2023-06-22T11:00:12;10.52;;;4.50;;
63046;SDS011;62025;39.238;9.126;2023-06-22T11:02:39;8.73;;;4.43;;
63046;SDS011;62025;39.238;9.126;2023-06-22T11:05:05;10.43;;;5.15;;
63046;SDS011;62025;39.238;9.126;2023-06-22T11:07:32;8.30;;;4.68;;
63046;SDS011;62025;39.238;9.126;2023-06-22T11:09:58;10.32;;;5.05;;
63046;SDS011;62025;39.238;9.126;2023-06-22T11:12:24;11.00;;;4.90;;
63046;SDS011;62025;39.238;9.126;2023-06-22T11:14:50;9.60;;;4.68;;
63046;SDS011;62025;39.238;9.126;2023-06-22T11:17:17;8.75;;;4.72;;
63046;SDS011;62025;39.238;9.126;2023-06-22T11:19:44;7.85;;;4.85;;
63046;SDS011;62025;39.238;9.126;2023-06-22T11:22:10;7.40;;;5.00;;
63046;SDS011;62025;39.238;9.126;2023-06-22T11:24:36;9.82;;;4.72;;
63046;SDS011;62025;39.238;9.126;2023-06-22T11:27:02;10.75;;;4.75;;
63046;SDS011;62025;39.238;9.126;2023-06-22T11:29:28;8.35;;;4.70;;
63046;SDS011;62025;39.238;9.126;2023-06-22T11:31:55;8.32;;;4.78;;
63046;SDS011;62025;39.238;9.126;2023-06-22T11:34:21;7.28;;;4.60;;
63046;SDS011;62025;39.238;9.126;2023-06-22T11:36:47;9.38;;;4.57;;
63046;SDS011;62025;39.238;9.126;2023-06-22T11:39:16;9.55;;;4.72;;
63046;SDS011;62025;39.238;9.126;2023-06-22T11:41:42;13.35;;;5.22;;
63046;SDS011;62025;39.238;9.126;2023-06-22T11:44:08;9.80;;;5.00;;
63046;SDS011;62025;39.238;9.126;2023-06-22T11:46:34;10.82;;;4.85;;
63046;SDS011;62025;39.238;9.126;2023-06-22T11:49:01;9.18;;;4.85;;
63046;SDS011;62025;39.238;9.126;2023-06-22T11:51:27;8.73;;;4.90;;
63046;SDS011;62025;39.238;9.126;2023-06-22T11:53:56;10.60;;;4.95;;
63046;SDS011;62025;39.238;9.126;2023-06-22T11:56:22;10.65;;;5.20;;
63046;SDS011;62025;39.238;9.126;2023-06-22T11:58:48;8.32;;;5.10;;
63046;SDS011;62025;39.238;9.126;2023-06-22T12:01:14;13.00;;;4.72;;
63046;SDS011;62025;39.238;9.126;2023-06-22T12:03:40;17.38;;;5.07;;
63046;SDS011;62025;39.238;9.126;2023-06-22T12:06:09;10.15;;;5.50;;
63046;SDS011;62025;39.238;9.126;2023-06-22T12:08:35;12.82;;;5.22;;
63046;SDS011;62025;39.238;9.126;2023-06-22T12:11:01;8.82;;;5.35;;
63046;SDS011;62025;39.238;9.126;2023-06-22T12:13:27;14.98;;;5.20;;
63046;SDS011;62025;39.238;9.126;2023-06-22T12:15:53;7.50;;;4.72;;
63046;SDS011;62025;39.238;9.126;2023-06-22T12:18:19;10.45;;;4.95;;
63046;SDS011;62025;39.238;9.126;2023-06-22T12:20:46;11.02;;;4.95;;
63046;SDS011;62025;39.238;9.126;2023-06-22T12:23:14;12.35;;;4.90;;
63046;SDS011;62025;39.238;9.126;2023-06-22T12:25:41;12.18;;;4.63;;
63046;SDS011;62025;39.238;9.126;2023-06-22T12:28:07;16.90;;;4.78;;
63046;SDS011;62025;39.238;9.126;2023-06-22T12:30:33;10.63;;;4.78;;
63046;SDS011;62025;39.238;9.126;2023-06-22T12:32:59;11.05;;;5.20;;
63046;SDS011;62025;39.238;9.126;2023-06-22T12:35:25;12.38;;;5.10;;
63046;SDS011;62025;39.238;9.126;2023-06-22T12:37:51;9.57;;;4.72;;
63046;SDS011;62025;39.238;9.126;2023-06-22T12:40:18;12.20;;;5.30;;
63046;SDS011;62025;39.238;9.126;2023-06-22T12:42:46;8.52;;;5.05;;
63046;SDS011;62025;39.238;9.126;2023-06-22T12:45:12;7.03;;;4.47;;
63046;SDS011;62025;39.238;9.126;2023-06-22T12:47:38;12.45;;;5.32;;
63046;SDS011;62025;39.238;9.126;2023-06-22T12:50:05;8.38;;;4.97;;
63046;SDS011;62025;39.238;9.126;2023-06-22T12:52:31;14.82;;;5.03;;
63046;SDS011;62025;39.238;9.126;2023-06-22T12:54:57;10.07;;;4.95;;
63046;SDS011;62025;39.238;9.126;2023-06-22T12:57:23;17.95;;;4.97;;
63046;SDS011;62025;39.238;9.126;2023-06-22T12:59:50;9.68;;;4.90;;
63046;SDS011;62025;39.238;9.126;2023-06-22T13:02:16;14.68;;;4.80;;
63046;SDS011;62025;39.238;9.126;2023-06-22T13:04:42;8.25;;;4.85;;
63046;SDS011;62025;39.238;9.126;2023-06-22T13:07:08;17.10;;;5.32;;
63046;SDS011;62025;39.238;9.126;2023-06-22T13:09:35;8.98;;;5.18;;
63046;SDS011;62025;39.238;9.126;2023-06-22T13:12:02;10.02;;;5.15;;
63046;SDS011;62025;39.238;9.126;2023-06-22T13:14:28;12.93;;;5.07;;
63046;SDS011;62025;39.238;9.126;2023-06-22T13:16:54;16.42;;;5.40;;
63046;SDS011;62025;39.238;9.126;2023-06-22T13:19:20;12.02;;;5.30;;
63046;SDS011;62025;39.238;9.126;2023-06-22T13:21:46;13.38;;;5.50;;
63046;SDS011;62025;39.238;9.126;2023-06-22T13:24:13;12.63;;;5.22;;
63046;SDS011;62025;39.238;9.126;2023-06-22T13:26:39;16.75;;;5.57;;
63046;SDS011;62025;39.238;9.126;2023-06-22T13:29:05;14.30;;;5.18;;
63046;SDS011;62025;39.238;9.126;2023-06-22T13:31:31;12.30;;;5.38;;
63046;SDS011;62025;39.238;9.126;2023-06-22T13:33:57;19.27;;;5.57;;
63046;SDS011;62025;39.238;9.126;2023-06-22T13:36:23;11.07;;;5.20;;
63046;SDS011;62025;39.238;9.126;2023-06-22T13:38:49;15.55;;;5.28;;
63046;SDS011;62025;39.238;9.126;2023-06-22T13:41:15;13.90;;;5.35;;
63046;SDS011;62025;39.238;9.126;2023-06-22T13:43:41;9.35;;;5.10;;
63046;SDS011;62025;39.238;9.126;2023-06-22T13:46:07;9.50;;;5.20;;
63046;SDS011;62025;39.238;9.126;2023-06-22T13:48:33;10.15;;;5.10;;
63046;SDS011;62025;39.238;9.126;2023-06-22T13:50:59;11.35;;;5.38;;
63046;SDS011;62025;39.238;9.126;2023-06-22T13:53:25;10.23;;;5.22;;
63046;SDS011;62025;39.238;9.126;2023-06-22T13:55:51;10.65;;;5.20;;
63046;SDS011;62025;39.238;9.126;2023-06-22T13:58:17;9.40;;;5.65;;
63046;SDS011;62025;39.238;9.126;2023-06-22T14:00:45;14.03;;;5.50;;
63046;SDS011;62025;39.238;9.126;2023-06-22T14:03:11;9.27;;;5.38;;
63046;SDS011;62025;39.238;9.126;2023-06-22T14:05:37;11.70;;;5.35;;
63046;SDS011;62025;39.238;9.126;2023-06-22T14:08:03;11.77;;;5.10;;
63046;SDS011;62025;39.238;9.126;2023-06-22T14:10:29;11.80;;;5.65;;
63046;SDS011;62025;39.238;9.126;2023-06-22T14:12:55;10.68;;;5.65;;
63046;SDS011;62025;39.238;9.126;2023-06-22T14:15:21;11.38;;;5.47;;
63046;SDS011;62025;39.238;9.126;2023-06-22T14:17:47;10.88;;;5.70;;
63046;SDS011;62025;39.238;9.126;2023-06-22T14:20:13;13.48;;;5.80;;
63046;SDS011;62025;39.238;9.126;2023-06-22T14:22:39;10.88;;;5.72;;
63046;SDS011;62025;39.238;9.126;2023-06-22T14:25:05;10.95;;;5.50;;
63046;SDS011;62025;39.238;9.126;2023-06-22T14:27:32;10.07;;;6.05;;
63046;SDS011;62025;39.238;9.126;2023-06-22T14:29:58;9.38;;;5.25;;
63046;SDS011;62025;39.238;9.126;2023-06-22T14:32:24;10.98;;;5.53;;
63046;SDS011;62025;39.238;9.126;2023-06-22T14:34:50;12.25;;;5.65;;
63046;SDS011;62025;39.238;9.126;2023-06-22T14:37:16;10.63;;;5.53;;
63046;SDS011;62025;39.238;9.126;2023-06-22T14:39:42;11.10;;;5.28;;
63046;SDS011;62025;39.238;9.126;2023-06-22T14:42:08;16.23;;;5.40;;
63046;SDS011;62025;39.238;9.126;2023-06-22T14:44:34;7.57;;;4.97;;
63046;SDS011;62025;39.238;9.126;2023-06-22T14:47:00;12.95;;;5.43;;
63046;SDS011;62025;39.238;9.126;2023-06-22T14:49:26;13.52;;;5.82;;
63046;SDS011;62025;39.238;9.126;2023-06-22T14:51:52;12.25;;;5.90;;
63046;SDS011;62025;39.238;9.126;2023-06-22T14:54:18;9.65;;;5.80;;
63046;SDS011;62025;39.238;9.126;2023-06-22T14:56:44;11.80;;;5.82;;
63046;SDS011;62025;39.238;9.126;2023-06-22T14:59:11;14.25;;;6.13;;
63046;SDS011;62025;39.238;9.126;2023-06-22T15:01:37;15.43;;;5.68;;